Time;durP1;ratioP1;P1;durP2;ratioP2;P2;SDS_P1;SDS_P2;PMS_P1;PMS_P2;Temp;Humidity;BMP_temperature;BMP_pressure;BME280_temperature;BME280_humidity;BME280_pressure;Samples;Min_cycle;Max_cycle;Signal;HPM_P1;HPM_P2
2021/01/17 00:00:09;;;;;;;8.07;4.57;;;;;;;;;;6258754;22;20222;-81
2021/01/17 00:02:38;;;;;;;7.90;6.07;;;;;;;;;;6284279;22;20572;-82
2021/01/17 00:05:07;;;;;;;8.82;5.90;;;;;;;;;;6258291;22;20729;-81
2021/01/17 00:07:33;;;;;;;6.85;5.13;;;;;;;;;;6259365;22;20248;-82
2021/01/17 00:09:59;;;;;;;5.68;5.18;;;;;;;;;;6285263;22;20180;-83
2021/01/17 00:12:25;;;;;;;6.47;5.88;;;;;;;;;;6258196;22;20142;-83
2021/01/17 00:14:52;;;;;;;7.10;4.82;;;;;;;;;;6285019;22;20669;-80
2021/01/17 00:17:18;;;;;;;7.03;6.35;;;;;;;;;;6286304;22;20138;-82
2021/01/17 00:19:44;;;;;;;7.68;6.30;;;;;;;;;;6285030;22;20138;-83
2021/01/17 00:22:17;;;;;;;7.30;5.47;;;;;;;;;;6285863;22;20173;-84
2021/01/17 00:24:43;;;;;;;6.57;5.97;;;;;;;;;;6257376;22;20152;-81
2021/01/17 00:27:12;;;;;;;6.25;5.75;;;;;;;;;;6284575;22;20136;-83
2021/01/17 00:29:48;;;;;;;;;;;;;;;;;;;;;
2021/01/17 00:32:14;;;;;;;6.88;5.88;;;;;;;;;;6287877;22;20181;-81
2021/01/17 00:34:43;;;;;;;7.57;6.78;;;;;;;;;;6292709;22;20134;-82
2021/01/17 00:37:13;;;;;;;8.13;7.30;;;;;;;;;;6287128;22;20145;-82
2021/01/17 00:39:39;;;;;;;8.50;7.72;;;;;;;;;;6257382;22;20184;-81
2021/01/17 00:42:09;;;;;;;6.97;6.28;;;;;;;;;;6256410;22;20246;-83
2021/01/17 00:44:35;;;;;;;10.20;9.10;;;;;;;;;;6257661;22;20138;-83
2021/01/17 00:47:01;;;;;;;13.32;7.90;;;;;;;;;;6258007;22;20232;-83
2021/01/17 00:49:27;;;;;;;7.80;6.90;;;;;;;;;;6258990;22;20181;-82
2021/01/17 00:51:54;;;;;;;8.70;7.80;;;;;;;;;;6257667;22;20171;-81
2021/01/17 00:54:20;;;;;;;7.95;7.15;;;;;;;;;;6259012;22;20163;-81
2021/01/17 00:56:47;;;;;;;8.20;6.78;;;;;;;;;;6259297;22;20491;-84
2021/01/17 00:59:16;;;;;;;8.98;7.43;;;;;;;;;;6259386;22;20244;-83
2021/01/17 01:01:46;;;;;;;10.45;6.95;;;;;;;;;;6285241;22;20169;-84
2021/01/17 01:04:14;;;;;;;7.38;6.65;;;;;;;;;;6285314;22;20595;-81
2021/01/17 01:06:42;;;;;;;7.63;6.93;;;;;;;;;;6259627;22;20146;-83
2021/01/17 01:09:13;;;;;;;7.93;7.13;;;;;;;;;;6285366;22;20161;-83
2021/01/17 01:11:39;;;;;;;9.30;7.82;;;;;;;;;;6259656;22;20169;-83
2021/01/17 01:14:06;;;;;;;8.43;7.47;;;;;;;;;;6286336;22;20152;-83
2021/01/17 01:16:32;;;;;;;8.95;7.45;;;;;;;;;;6259640;22;20152;-80
2021/01/17 01:18:59;;;;;;;11.07;7.65;;;;;;;;;;6267555;22;20145;-81
2021/01/17 01:21:32;;;;;;;9.23;6.50;;;;;;;;;;6302380;22;20165;-83
2021/01/17 01:23:59;;;;;;;8.07;7.07;;;;;;;;;;6303444;22;20149;-83
2021/01/17 01:26:26;;;;;;;6.95;6.35;;;;;;;;;;6304074;22;20136;-82
2021/01/17 01:28:56;;;;;;;7.53;6.90;;;;;;;;;;6274561;22;20172;-83
2021/01/17 01:31:23;;;;;;;13.40;7.10;;;;;;;;;;6289566;22;20168;-83
2021/01/17 01:33:50;;;;;;;8.63;6.70;;;;;;;;;;6296478;22;20193;-83
2021/01/17 01:36:19;;;;;;;9.70;7.05;;;;;;;;;;6295184;22;20141;-84
2021/01/17 01:38:46;;;;;;;9.93;7.30;;;;;;;;;;6271291;22;20179;-84
2021/01/17 01:41:12;;;;;;;8.52;7.35;;;;;;;;;;6297425;22;20180;-83
2021/01/17 01:43:38;;;;;;;8.38;7.22;;;;;;;;;;6271651;22;20161;-83
2021/01/17 01:46:04;;;;;;;8.90;7.60;;;;;;;;;;6299773;22;20183;-83
2021/01/17 01:48:32;;;;;;;7.70;6.95;;;;;;;;;;6298762;22;20142;-83
2021/01/17 01:50:59;;;;;;;8.75;6.32;;;;;;;;;;6295618;22;20187;-82
2021/01/17 01:53:26;;;;;;;8.50;7.40;;;;;;;;;;6270171;22;20152;-84
2021/01/17 01:55:52;;;;;;;8.90;8.10;;;;;;;;;;6292787;22;20161;-82
2021/01/17 01:58:23;;;;;;;6.13;5.55;;;;;;;;;;6295641;22;20294;-83
2021/01/17 02:00:50;;;;;;;11.18;9.45;;;;;;;;;;6267821;22;20180;-83
2021/01/17 02:03:16;;;;;;;8.13;7.25;;;;;;;;;;6295538;22;20178;-82
2021/01/17 02:05:42;;;;;;;7.00;6.20;;;;;;;;;;6287632;22;20153;-84
2021/01/17 02:08:27;;;;;;;7.78;7.03;;;;;;;;;;6262861;22;20157;-83
2021/01/17 02:10:57;;;;;;;7.88;5.93;;;;;;;;;;6263431;22;20231;-84
2021/01/17 02:13:29;;;;;;;7.55;5.82;;;;;;;;;;6290717;22;20145;-83
2021/01/17 02:15:55;;;;;;;7.65;6.90;;;;;;;;;;6305412;22;20155;-81
2021/01/17 02:18:22;;;;;;;7.85;6.70;;;;;;;;;;6278283;22;20134;-83
2021/01/17 02:20:50;;;;;;;8.25;7.28;;;;;;;;;;6276373;22;20224;-82
2021/01/17 02:23:19;;;;;;;8.40;7.60;;;;;;;;;;6259153;22;20149;-84
2021/01/17 02:25:46;;;;;;;12.65;8.15;;;;;;;;;;6284306;22;20168;-82
2021/01/17 02:28:16;;;;;;;9.07;7.97;;;;;;;;;;6284061;22;20137;-81
2021/01/17 02:30:46;;;;;;;10.50;7.55;;;;;;;;;;6259628;22;20193;-82
2021/01/17 02:33:15;;;;;;;8.73;7.63;;;;;;;;;;6282834;22;20134;-83
2021/01/17 02:35:41;;;;;;;8.20;7.35;;;;;;;;;;6281890;22;20141;-83
2021/01/17 02:38:19;;;;;;;8.45;7.65;;;;;;;;;;6256427;22;20153;-83
2021/01/17 02:41:01;;;;;;;10.95;7.93;;;;;;;;;;6283245;22;20172;-83
2021/01/17 02:43:28;;;;;;;8.13;6.70;;;;;;;;;;6256193;22;20189;-83
2021/01/17 02:45:54;;;;;;;9.15;7.80;;;;;;;;;;6258517;22;20179;-83
2021/01/17 02:48:20;;;;;;;7.65;6.97;;;;;;;;;;6286103;22;20137;-83
2021/01/17 02:50:46;;;;;;;8.70;7.45;;;;;;;;;;6285875;22;20172;-83
2021/01/17 02:53:24;;;;;;;10.02;6.88;;;;;;;;;;6287465;22;20711;-84
2021/01/17 02:55:52;;;;;;;12.00;8.05;;;;;;;;;;6258174;22;20184;-81
2021/01/17 02:58:19;;;;;;;10.15;7.47;;;;;;;;;;6284874;22;20142;-81
2021/01/17 03:00:47;;;;;;;7.80;6.93;;;;;;;;;;6279289;22;20197;-83
2021/01/17 03:03:14;;;;;;;8.27;7.15;;;;;;;;;;6279857;22;20217;-83
2021/01/17 03:05:41;;;;;;;7.40;6.60;;;;;;;;;;6305400;22;20200;-84
2021/01/17 03:08:07;;;;;;;7.07;6.35;;;;;;;;;;6269094;22;20150;-84
2021/01/17 03:10:34;;;;;;;7.85;6.97;;;;;;;;;;6259345;22;20168;-82
2021/01/17 03:13:04;;;;;;;7.93;7.10;;;;;;;;;;6287619;22;20141;-84
2021/01/17 03:15:32;;;;;;;10.18;8.00;;;;;;;;;;6286140;22;20149;-80
2021/01/17 03:18:02;;;;;;;10.77;7.53;;;;;;;;;;6258918;22;20179;-83
2021/01/17 03:20:28;;;;;;;8.00;7.13;;;;;;;;;;6283381;22;20181;-82
2021/01/17 03:22:54;;;;;;;7.80;6.25;;;;;;;;;;6285776;22;20175;-84
2021/01/17 03:25:20;;;;;;;9.10;7.53;;;;;;;;;;6260347;22;20145;-84
2021/01/17 03:27:47;;;;;;;9.77;8.77;;;;;;;;;;6288499;22;20146;-83
2021/01/17 03:30:14;;;;;;;9.77;6.68;;;;;;;;;;6287352;22;20161;-83
2021/01/17 03:32:40;;;;;;;9.88;7.65;;;;;;;;;;6286569;22;20141;-83
2021/01/17 03:35:06;;;;;;;10.73;7.85;;;;;;;;;;6258758;22;20497;-84
2021/01/17 03:37:32;;;;;;;8.82;7.70;;;;;;;;;;6286871;22;20145;-84
2021/01/17 03:39:58;;;;;;;9.40;8.25;;;;;;;;;;6260972;22;20512;-82
2021/01/17 03:42:24;;;;;;;7.25;6.30;;;;;;;;;;6259751;22;20181;-82
2021/01/17 03:44:51;;;;;;;7.45;6.72;;;;;;;;;;6287993;22;20209;-83
2021/01/17 03:47:17;;;;;;;7.63;6.95;;;;;;;;;;6260032;22;20145;-83
2021/01/17 03:49:44;;;;;;;13.75;9.07;;;;;;;;;;6287416;22;20149;-82
2021/01/17 03:52:10;;;;;;;6.85;5.50;;;;;;;;;;6258796;22;20153;-80
2021/01/17 03:54:36;;;;;;;7.53;6.80;;;;;;;;;;6282523;22;20151;-82
2021/01/17 03:57:02;;;;;;;9.00;6.40;;;;;;;;;;6257060;22;20149;-82
2021/01/17 03:59:29;;;;;;;8.73;7.93;;;;;;;;;;6256187;22;20241;-81
2021/01/17 04:01:55;;;;;;;8.82;7.85;;;;;;;;;;6256577;22;20169;-80
2021/01/17 04:04:21;;;;;;;9.32;7.65;;;;;;;;;;6255687;22;20170;-82
2021/01/17 04:06:47;;;;;;;8.82;7.93;;;;;;;;;;6257332;22;20180;-83
2021/01/17 04:09:15;;;;;;;7.53;6.82;;;;;;;;;;6280620;22;20145;-81
2021/01/17 04:11:41;;;;;;;13.00;8.60;;;;;;;;;;6282824;22;20158;-81
2021/01/17 04:14:07;;;;;;;10.07;9.02;;;;;;;;;;6281131;22;20169;-83
2021/01/17 04:16:33;;;;;;;8.85;7.55;;;;;;;;;;6255077;22;20189;-81
2021/01/17 04:18:59;;;;;;;10.05;8.27;;;;;;;;;;6254079;22;20156;-84
2021/01/17 04:21:25;;;;;;;8.65;7.85;;;;;;;;;;6281304;22;20195;-83
2021/01/17 04:23:51;;;;;;;12.00;8.80;;;;;;;;;;6254968;22;20150;-82
2021/01/17 04:26:18;;;;;;;10.00;8.45;;;;;;;;;;6281087;22;20220;-82
2021/01/17 04:28:44;;;;;;;15.82;8.40;;;;;;;;;;6254573;22;20172;-81
2021/01/17 04:31:11;;;;;;;9.38;7.10;;;;;;;;;;6282182;22;20161;-83
2021/01/17 04:33:37;;;;;;;7.60;6.90;;;;;;;;;;6283677;22;20150;-82
2021/01/17 04:36:03;;;;;;;8.75;7.68;;;;;;;;;;6264400;22;20157;-83
2021/01/17 04:38:32;;;;;;;9.75;8.95;;;;;;;;;;6278279;22;20168;-82
2021/01/17 04:41:03;;;;;;;11.07;8.15;;;;;;;;;;6278512;22;20181;-81
2021/01/17 04:43:30;;;;;;;7.07;6.47;;;;;;;;;;6304228;22;20255;-82
2021/01/17 04:46:01;;;;;;;9.75;7.57;;;;;;;;;;6300590;22;20461;-81
2021/01/17 04:48:28;;;;;;;11.02;8.40;;;;;;;;;;6296546;22;20121;-83
2021/01/17 04:50:57;;;;;;;7.70;6.30;;;;;;;;;;6300139;22;20611;-80
2021/01/17 04:53:24;;;;;;;9.68;8.43;;;;;;;;;;6276049;22;20137;-82
2021/01/17 04:55:51;;;;;;;7.35;6.65;;;;;;;;;;6296261;22;20137;-82
2021/01/17 04:58:20;;;;;;;11.27;8.63;;;;;;;;;;6256435;22;20204;-83
2021/01/17 05:00:55;;;;;;;10.35;8.65;;;;;;;;;;6280905;22;20173;-81
2021/01/17 05:03:31;;;;;;;9.40;7.45;;;;;;;;;;6284395;22;20134;-82
2021/01/17 05:06:16;;;;;;;9.68;7.78;;;;;;;;;;6255274;22;20543;-82
2021/01/17 05:08:45;;;;;;;12.48;8.13;;;;;;;;;;6255622;22;20180;-82
2021/01/17 05:11:22;;;;;;;7.25;6.00;;;;;;;;;;6255365;22;20169;-83
2021/01/17 05:13:49;;;;;;;9.40;8.40;;;;;;;;;;6281781;22;20133;-82
2021/01/17 05:16:16;;;;;;;10.15;9.10;;;;;;;;;;6256473;22;20506;-81
2021/01/17 05:18:48;;;;;;;10.82;8.10;;;;;;;;;;6284270;22;20172;-82
2021/01/17 05:21:21;;;;;;;8.75;7.72;;;;;;;;;;6256080;22;20187;-82
2021/01/17 05:23:48;;;;;;;18.23;7.53;;;;;;;;;;6281451;22;20220;-83
2021/01/17 05:26:14;;;;;;;10.18;7.90;;;;;;;;;;6284382;22;20167;-82
2021/01/17 05:28:40;;;;;;;11.18;8.07;;;;;;;;;;6258350;22;20156;-83
2021/01/17 05:31:06;;;;;;;9.75;8.10;;;;;;;;;;6282347;22;20527;-83
2021/01/17 05:33:33;;;;;;;10.98;8.45;;;;;;;;;;6256808;22;20161;-83
2021/01/17 05:36:00;;;;;;;10.77;8.10;;;;;;;;;;6256056;22;20153;-81
2021/01/17 05:38:26;;;;;;;7.75;6.93;;;;;;;;;;6256426;22;20183;-83
2021/01/17 05:40:52;;;;;;;9.88;7.15;;;;;;;;;;6256368;22;20169;-82
2021/01/17 05:43:19;;;;;;;9.68;7.63;;;;;;;;;;6255858;22;20161;-83
2021/01/17 05:45:45;;;;;;;10.43;9.35;;;;;;;;;;6258339;22;20291;-82
2021/01/17 05:48:11;;;;;;;7.45;6.75;;;;;;;;;;6259213;22;20148;-81
2021/01/17 05:50:42;;;;;;;9.82;8.07;;;;;;;;;;6260480;22;20246;-82
2021/01/17 05:53:08;;;;;;;7.28;5.70;;;;;;;;;;6288354;22;20129;-81
2021/01/17 05:55:34;;;;;;;9.68;8.10;;;;;;;;;;6261356;22;20180;-80
2021/01/17 05:58:23;;;;;;;8.30;7.45;;;;;;;;;;6288622;22;20145;-83
2021/01/17 06:00:50;;;;;;;9.32;7.72;;;;;;;;;;6286982;22;20521;-83
2021/01/17 06:03:20;;;;;;;11.35;8.82;;;;;;;;;;6288259;22;20472;-83
2021/01/17 06:05:48;;;;;;;9.73;7.57;;;;;;;;;;6286139;22;20141;-83
2021/01/17 06:08:18;;;;;;;9.80;7.60;;;;;;;;;;6285496;22;20148;-82
2021/01/17 06:10:45;;;;;;;10.75;9.07;;;;;;;;;;6287852;22;20161;-82
2021/01/17 06:13:12;;;;;;;10.18;8.18;;;;;;;;;;6288032;22;20506;-82
2021/01/17 06:15:38;;;;;;;9.15;7.60;;;;;;;;;;6290678;22;20125;-81
2021/01/17 06:18:04;;;;;;;8.55;7.68;;;;;;;;;;6280603;22;20157;-82
2021/01/17 06:20:31;;;;;;;10.05;9.07;;;;;;;;;;6306924;22;20192;-84
2021/01/17 06:22:59;;;;;;;9.15;8.25;;;;;;;;;;6280644;22;20153;-83
2021/01/17 06:25:35;;;;;;;10.23;8.70;;;;;;;;;;6290993;22;20197;-81
2021/01/17 06:28:11;;;;;;;11.68;8.73;;;;;;;;;;6285625;22;20531;-81
2021/01/17 06:30:38;;;;;;;8.75;6.90;;;;;;;;;;6285790;22;20479;-82
2021/01/17 06:33:04;;;;;;;9.57;7.13;;;;;;;;;;6285874;22;20137;-83
2021/01/17 06:35:32;;;;;;;8.88;7.65;;;;;;;;;;6260098;22;20212;-83
2021/01/17 06:38:13;;;;;;;6.78;6.00;;;;;;;;;;6284953;22;20145;-84
2021/01/17 06:40:41;;;;;;;10.60;7.97;;;;;;;;;;6285428;22;20172;-83
2021/01/17 06:43:11;;;;;;;9.90;8.05;;;;;;;;;;6259161;22;20169;-83
2021/01/17 06:45:44;;;;;;;11.88;7.80;;;;;;;;;;6287644;22;20191;-83
2021/01/17 06:48:30;;;;;;;7.25;6.50;;;;;;;;;;6289847;22;20141;-82
2021/01/17 06:51:15;;;;;;;9.23;7.90;;;;;;;;;;6265452;22;20169;-80
2021/01/17 06:53:50;;;;;;;8.30;7.30;;;;;;;;;;6292811;22;20440;-83
2021/01/17 06:56:19;;;;;;;8.48;7.00;;;;;;;;;;6266879;22;20160;-80
2021/01/17 06:58:45;;;;;;;6.55;5.30;;;;;;;;;;6296846;22;20180;-79
2021/01/17 07:01:11;;;;;;;6.57;5.60;;;;;;;;;;6295442;22;20173;-80
2021/01/17 07:03:56;;;;;;;8.05;7.32;;;;;;;;;;6297781;22;20237;-79
2021/01/17 07:06:29;;;;;;;6.20;5.53;;;;;;;;;;6275709;22;20149;-81
2021/01/17 07:09:01;;;;;;;8.85;6.95;;;;;;;;;;6277155;22;20175;-81
2021/01/17 07:11:37;;;;;;;9.13;7.40;;;;;;;;;;6276245;22;20203;-83
2021/01/17 07:14:07;;;;;;;9.95;9.02;;;;;;;;;;6274227;22;20157;-82
2021/01/17 07:16:35;;;;;;;9.75;7.22;;;;;;;;;;6273563;22;20159;-82
2021/01/17 07:19:06;;;;;;;10.77;7.82;;;;;;;;;;6298435;22;20200;-78
2021/01/17 07:21:36;;;;;;;9.20;8.35;;;;;;;;;;6266758;22;20188;-81
2021/01/17 07:24:04;;;;;;;10.65;7.95;;;;;;;;;;6270539;22;20160;-82
2021/01/17 07:26:38;;;;;;;14.25;8.45;;;;;;;;;;6274273;22;20148;-82
2021/01/17 07:29:08;;;;;;;8.05;7.00;;;;;;;;;;6273075;22;20454;-83
2021/01/17 07:31:37;;;;;;;10.63;8.35;;;;;;;;;;6273271;22;20220;-82
2021/01/17 07:34:10;;;;;;;8.65;7.80;;;;;;;;;;6296563;22;20134;-83
2021/01/17 07:36:38;;;;;;;9.80;7.70;;;;;;;;;;6271513;22;20142;-83
2021/01/17 07:39:06;;;;;;;9.15;7.53;;;;;;;;;;6299991;22;20165;-83
2021/01/17 07:41:37;;;;;;;9.50;8.50;;;;;;;;;;6296156;22;20216;-82
2021/01/17 07:44:03;;;;;;;12.45;7.90;;;;;;;;;;6292371;22;20199;-83
2021/01/17 07:46:34;;;;;;;9.27;8.38;;;;;;;;;;6296265;22;20156;-81
2021/01/17 07:49:03;;;;;;;11.57;9.02;;;;;;;;;;6292285;22;20145;-83
2021/01/17 07:51:29;;;;;;;10.82;9.77;;;;;;;;;;6293040;22;20603;-83
2021/01/17 07:54:15;;;;;;;9.48;8.60;;;;;;;;;;6298086;22;20152;-83
2021/01/17 07:56:42;;;;;;;11.10;8.13;;;;;;;;;;6279015;22;20160;-84
2021/01/17 07:59:08;;;;;;;8.68;7.78;;;;;;;;;;6305274;22;20125;-82
2021/01/17 08:01:38;;;;;;;8.77;7.68;;;;;;;;;;6304514;22;20173;-83
2021/01/17 08:04:05;;;;;;;7.65;6.85;;;;;;;;;;6260400;22;20149;-83
2021/01/17 08:06:51;;;;;;;8.70;7.88;;;;;;;;;;6283366;22;20620;-83
2021/01/17 08:09:18;;;;;;;5.80;5.30;;;;;;;;;;6256922;22;20572;-82
2021/01/17 08:11:45;;;;;;;7.63;6.93;;;;;;;;;;6256434;22;20173;-82
2021/01/17 08:14:18;;;;;;;7.68;6.95;;;;;;;;;;6284622;22;20165;-84
2021/01/17 08:17:03;;;;;;;19.02;12.07;;;;;;;;;;6286412;22;20141;-83
2021/01/17 08:19:36;;;;;;;7.65;6.95;;;;;;;;;;6258188;22;20160;-83
2021/01/17 08:22:17;;;;;;;6.63;6.00;;;;;;;;;;6284865;22;20215;-84
2021/01/17 08:24:47;;;;;;;7.38;6.50;;;;;;;;;;6257475;22;20221;-84
2021/01/17 08:27:29;;;;;;;7.47;6.78;;;;;;;;;;6257581;22;20176;-82
2021/01/17 08:30:11;;;;;;;7.82;6.35;;;;;;;;;;6255623;22;20165;-83
2021/01/17 08:32:37;;;;;;;8.75;7.95;;;;;;;;;;6281480;22;20544;-82
2021/01/17 08:35:22;;;;;;;7.18;6.47;;;;;;;;;;6256060;22;20153;-82
2021/01/17 08:37:53;;;;;;;12.57;10.68;;;;;;;;;;6282762;22;20206;-81
2021/01/17 08:40:39;;;;;;;9.98;7.28;;;;;;;;;;6285430;22;20169;-84
2021/01/17 08:43:06;;;;;;;10.65;9.60;;;;;;;;;;6265037;22;20169;-83
2021/01/17 08:45:34;;;;;;;10.75;9.75;;;;;;;;;;6285020;22;20237;-83
2021/01/17 08:48:01;;;;;;;9.75;8.60;;;;;;;;;;6259091;22;20146;-83
2021/01/17 08:50:31;;;;;;;11.85;8.02;;;;;;;;;;6283415;22;20161;-81
2021/01/17 08:53:10;;;;;;;10.95;8.32;;;;;;;;;;6280610;22;20202;-84
2021/01/17 08:55:37;;;;;;;15.52;9.93;;;;;;;;;;6280923;22;20141;-82
2021/01/17 08:58:13;;;;;;;;;;;;;;;;;;;;;
2021/01/17 09:00:49;;;;;;;9.55;8.55;;;;;;;;;;6284030;22;20218;-83
2021/01/17 09:03:24;;;;;;;10.07;7.68;;;;;;;;;;6284941;22;20137;-83
2021/01/17 09:05:51;;;;;;;12.77;10.30;;;;;;;;;;6285583;22;20145;-82
2021/01/17 09:08:18;;;;;;;11.95;10.07;;;;;;;;;;6281233;22;20176;-82
2021/01/17 09:10:45;;;;;;;9.80;8.77;;;;;;;;;;6254915;22;20171;-83
2021/01/17 09:13:18;;;;;;;11.23;9.32;;;;;;;;;;6255373;22;20164;-83
2021/01/17 09:16:05;;;;;;;11.65;8.35;;;;;;;;;;6280934;22;20172;-84
2021/01/17 09:18:34;;;;;;;9.77;8.77;;;;;;;;;;6255807;22;20168;-84
2021/01/17 09:21:13;;;;;;;;;;;;;;;;;;;;;
2021/01/17 09:23:43;;;;;;;11.00;8.43;;;;;;;;;;6252929;22;20145;-83
2021/01/17 09:26:09;;;;;;;10.98;9.65;;;;;;;;;;6278808;22;20137;-82
2021/01/17 09:28:35;;;;;;;9.77;8.75;;;;;;;;;;6254168;22;20146;-82
2021/01/17 09:31:02;;;;;;;9.60;8.10;;;;;;;;;;6253793;22;20632;-79
2021/01/17 09:33:38;;;;;;;11.15;8.60;;;;;;;;;;6269364;22;20157;-81
2021/01/17 09:36:11;;;;;;;11.48;10.38;;;;;;;;;;6302929;22;20134;-85
2021/01/17 09:38:44;;;;;;;12.35;10.77;;;;;;;;;;6303401;22;20173;-84
2021/01/17 09:41:10;;;;;;;12.55;9.10;;;;;;;;;;6298343;22;20184;-80
2021/01/17 09:43:40;;;;;;;11.05;8.90;;;;;;;;;;6274007;22;20141;-84
2021/01/17 09:46:06;;;;;;;9.30;8.45;;;;;;;;;;6300351;22;20163;-81
2021/01/17 09:48:32;;;;;;;14.02;10.15;;;;;;;;;;6326302;22;20145;-81
2021/01/17 09:51:00;;;;;;;10.52;9.43;;;;;;;;;;6317471;22;20235;-84
2021/01/17 09:53:26;;;;;;;11.30;9.80;;;;;;;;;;6318779;22;20217;-84
2021/01/17 09:55:52;;;;;;;13.10;10.15;;;;;;;;;;6264077;22;20168;-81
2021/01/17 09:58:21;;;;;;;12.82;11.70;;;;;;;;;;6319396;22;20149;-81
2021/01/17 10:00:52;;;;;;;9.63;8.73;;;;;;;;;;6318648;22;20173;-81
2021/01/17 10:03:18;;;;;;;12.52;11.32;;;;;;;;;;6317414;22;20186;-82
2021/01/17 10:05:45;;;;;;;10.75;9.35;;;;;;;;;;6315018;22;20141;-81
2021/01/17 10:08:12;;;;;;;12.38;11.00;;;;;;;;;;6288938;22;20153;-82
2021/01/17 10:10:39;;;;;;;11.63;10.18;;;;;;;;;;6316987;22;20160;-80
2021/01/17 10:13:07;;;;;;;15.23;11.60;;;;;;;;;;6290006;22;20148;-81
2021/01/17 10:15:33;;;;;;;15.52;11.77;;;;;;;;;;6315307;22;20148;-81
2021/01/17 10:17:59;;;;;;;15.55;13.93;;;;;;;;;;6289924;22;20144;-82
2021/01/17 10:20:29;;;;;;;21.05;14.10;;;;;;;;;;6319134;22;20182;-82
2021/01/17 10:23:18;;;;;;;20.25;15.43;;;;;;;;;;6318154;22;20152;-82
2021/01/17 10:25:45;;;;;;;15.13;11.43;;;;;;;;;;6318949;22;20141;-80
2021/01/17 10:28:16;;;;;;;16.63;12.50;;;;;;;;;;6320029;22;20125;-81
2021/01/17 10:30:42;;;;;;;16.42;13.05;;;;;;;;;;6264632;22;20173;-80
2021/01/17 10:33:10;;;;;;;20.63;11.80;;;;;;;;;;6320355;22;20140;-83
2021/01/17 10:35:37;;;;;;;22.35;15.60;;;;;;;;;;6295471;22;20274;-82
2021/01/17 10:38:04;;;;;;;20.05;14.10;;;;;;;;;;6321643;22;20455;-81
2021/01/17 10:40:30;;;;;;;18.70;13.05;;;;;;;;;;6321050;22;20196;-81
2021/01/17 10:42:58;;;;;;;16.70;11.55;;;;;;;;;;6269550;22;20469;-82
2021/01/17 10:45:25;;;;;;;15.20;13.60;;;;;;;;;;6321926;22;20149;-84
2021/01/17 10:48:00;;;;;;;13.18;11.77;;;;;;;;;;6297651;22;20152;-85
2021/01/17 10:50:27;;;;;;;13.10;11.18;;;;;;;;;;6327840;22;20160;-85
2021/01/17 10:53:11;;;;;;;18.98;14.20;;;;;;;;;;6332128;22;20144;-84
2021/01/17 10:55:38;;;;;;;18.60;12.05;;;;;;;;;;6304981;22;20128;-85
2021/01/17 10:58:05;;;;;;;15.18;13.65;;;;;;;;;;6305223;22;20140;-84
2021/01/17 11:00:31;;;;;;;24.63;13.48;;;;;;;;;;6332589;22;20172;-84
2021/01/17 11:03:01;;;;;;;20.80;13.70;;;;;;;;;;6307540;22;20137;-84
2021/01/17 11:05:28;;;;;;;14.50;11.93;;;;;;;;;;6279308;22;20152;-84
2021/01/17 11:07:54;;;;;;;13.82;12.40;;;;;;;;;;6305157;22;20171;-84
2021/01/17 11:10:21;;;;;;;18.02;11.88;;;;;;;;;;6304370;22;20195;-83
2021/01/17 11:12:47;;;;;;;18.30;12.50;;;;;;;;;;6305236;22;20172;-83
2021/01/17 11:15:18;;;;;;;17.27;13.00;;;;;;;;;;6332195;22;20141;-83
2021/01/17 11:17:51;;;;;;;17.05;13.00;;;;;;;;;;6329205;22;20155;-82
2021/01/17 11:20:17;;;;;;;13.75;10.90;;;;;;;;;;6303183;22;20160;-84
2021/01/17 11:22:44;;;;;;;18.90;13.48;;;;;;;;;;6329323;22;20193;-83
2021/01/17 11:25:20;;;;;;;16.95;13.60;;;;;;;;;;6329656;22;20144;-84
2021/01/17 11:27:46;;;;;;;18.00;13.40;;;;;;;;;;6299924;22;20163;-83
2021/01/17 11:30:14;;;;;;;17.00;12.85;;;;;;;;;;6293587;22;20179;-85
2021/01/17 11:32:41;;;;;;;15.45;10.90;;;;;;;;;;6269683;22;20157;-82
2021/01/17 11:35:21;;;;;;;19.27;17.15;;;;;;;;;;6317755;22;20140;-85
2021/01/17 11:37:49;;;;;;;15.18;13.13;;;;;;;;;;6318555;22;20451;-85
2021/01/17 11:40:18;;;;;;;20.63;13.52;;;;;;;;;;6293397;22;20169;-82
2021/01/17 11:42:44;;;;;;;17.45;13.82;;;;;;;;;;6318721;22;20129;-84
2021/01/17 11:45:18;;;;;;;22.00;14.20;;;;;;;;;;6318902;22;20159;-84
2021/01/17 11:47:56;;;;;;;17.90;14.18;;;;;;;;;;6291834;22;20594;-83
2021/01/17 11:50:22;;;;;;;22.17;13.55;;;;;;;;;;6293467;22;20160;-82
2021/01/17 11:53:01;;;;;;;15.43;12.90;;;;;;;;;;6319491;22;20137;-84
2021/01/17 11:55:28;;;;;;;17.23;12.90;;;;;;;;;;6290558;22;20148;-83
2021/01/17 11:58:10;;;;;;;18.27;14.10;;;;;;;;;;6291968;22;20148;-83
2021/01/17 12:00:46;;;;;;;20.08;14.52;;;;;;;;;;6318681;22;20156;-83
2021/01/17 12:03:28;;;;;;;16.50;13.38;;;;;;;;;;6318859;22;20223;-83
2021/01/17 12:06:02;;;;;;;20.10;13.57;;;;;;;;;;6319547;22;20151;-82
2021/01/17 12:08:47;;;;;;;15.30;12.77;;;;;;;;;;6266333;22;20151;-83
2021/01/17 12:11:34;;;;;;;16.70;14.15;;;;;;;;;;6292305;22;20247;-83
2021/01/17 12:14:01;;;;;;;17.45;12.57;;;;;;;;;;6291322;22;20189;-82
2021/01/17 12:16:28;;;;;;;17.65;13.60;;;;;;;;;;6290638;22;20223;-84
2021/01/17 12:18:54;;;;;;;22.00;13.15;;;;;;;;;;6290808;22;20633;-83
2021/01/17 12:21:24;;;;;;;16.67;14.82;;;;;;;;;;6319301;22;20180;-82
2021/01/17 12:24:04;;;;;;;15.73;13.88;;;;;;;;;;6292869;22;20155;-82
2021/01/17 12:26:30;;;;;;;19.75;13.63;;;;;;;;;;6315474;22;20141;-82
2021/01/17 12:28:56;;;;;;;18.63;13.75;;;;;;;;;;6289980;22;20234;-84
2021/01/17 12:31:24;;;;;;;22.55;13.38;;;;;;;;;;6289802;22;20164;-84
2021/01/17 12:33:51;;;;;;;18.17;16.05;;;;;;;;;;6264823;22;20552;-83
2021/01/17 12:36:18;;;;;;;22.92;16.85;;;;;;;;;;6289587;22;20156;-83
2021/01/17 12:38:44;;;;;;;28.17;17.17;;;;;;;;;;6289153;22;20590;-85
2021/01/17 12:41:15;;;;;;;14.73;13.05;;;;;;;;;;6289901;22;20185;-84
2021/01/17 12:43:55;;;;;;;15.82;12.60;;;;;;;;;;6265914;22;20145;-84
2021/01/17 12:46:22;;;;;;;16.95;11.05;;;;;;;;;;6290695;22;20124;-84
2021/01/17 12:48:49;;;;;;;17.58;14.68;;;;;;;;;;6317824;22;20145;-84
2021/01/17 12:51:15;;;;;;;14.48;13.05;;;;;;;;;;6290297;22;20174;-84
2021/01/17 12:53:42;;;;;;;13.80;11.50;;;;;;;;;;6288841;22;20149;-84
2021/01/17 12:56:09;;;;;;;16.42;11.52;;;;;;;;;;6318803;22;20136;-84
2021/01/17 12:58:36;;;;;;;16.77;12.90;;;;;;;;;;6317116;22;20479;-84
2021/01/17 13:01:03;;;;;;;17.80;12.05;;;;;;;;;;6317692;22;20251;-83
2021/01/17 13:03:30;;;;;;;16.70;13.90;;;;;;;;;;6317803;22;20465;-82
2021/01/17 13:05:56;;;;;;;17.73;14.05;;;;;;;;;;6316797;22;20276;-82
2021/01/17 13:08:22;;;;;;;15.77;12.00;;;;;;;;;;6289814;22;20141;-82
2021/01/17 13:10:49;;;;;;;14.00;11.80;;;;;;;;;;6326753;22;20161;-81
2021/01/17 13:13:16;;;;;;;16.63;14.40;;;;;;;;;;6317973;22;20149;-82
2021/01/17 13:15:43;;;;;;;18.02;12.57;;;;;;;;;;6288806;22;20198;-82
2021/01/17 13:18:09;;;;;;;23.60;19.33;;;;;;;;;;6315438;22;20145;-82
2021/01/17 13:20:35;;;;;;;17.00;13.10;;;;;;;;;;6288891;22;20504;-82
2021/01/17 13:23:04;;;;;;;16.58;12.23;;;;;;;;;;6316001;22;20164;-83
2021/01/17 13:25:31;;;;;;;15.32;13.43;;;;;;;;;;6289857;22;20152;-82
2021/01/17 13:27:57;;;;;;;16.45;14.00;;;;;;;;;;6317378;22;20220;-83
2021/01/17 13:30:24;;;;;;;18.00;14.30;;;;;;;;;;6319299;22;20166;-82
2021/01/17 13:32:50;;;;;;;19.25;14.43;;;;;;;;;;6320069;22;20314;-82
2021/01/17 13:35:16;;;;;;;19.17;15.52;;;;;;;;;;6321196;22;20183;-83
2021/01/17 13:37:42;;;;;;;19.45;15.48;;;;;;;;;;6294484;22;20132;-82
2021/01/17 13:40:09;;;;;;;15.05;13.63;;;;;;;;;;6294962;22;20148;-82
2021/01/17 13:42:35;;;;;;;17.35;15.25;;;;;;;;;;6321569;22;20164;-82
2021/01/17 13:45:02;;;;;;;17.55;13.70;;;;;;;;;;6315944;22;20167;-82
2021/01/17 13:47:29;;;;;;;20.08;14.73;;;;;;;;;;6316396;22;20216;-82
2021/01/17 13:49:56;;;;;;;14.55;12.60;;;;;;;;;;6289805;22;20245;-82
2021/01/17 13:52:23;;;;;;;14.18;12.68;;;;;;;;;;6316173;22;20149;-82
2021/01/17 13:54:49;;;;;;;14.40;12.93;;;;;;;;;;6316333;22;20145;-82
2021/01/17 13:57:15;;;;;;;13.95;12.63;;;;;;;;;;6288346;22;20148;-82
2021/01/17 13:59:41;;;;;;;17.42;13.93;;;;;;;;;;6287264;22;20172;-82
2021/01/17 14:02:11;;;;;;;16.35;12.77;;;;;;;;;;6288055;22;20275;-82
2021/01/17 14:04:38;;;;;;;18.77;14.00;;;;;;;;;;6288376;22;20484;-82
2021/01/17 14:07:05;;;;;;;16.13;11.43;;;;;;;;;;6317362;22;20158;-82
2021/01/17 14:09:31;;;;;;;18.23;14.35;;;;;;;;;;6317434;22;20629;-81
2021/01/17 14:11:58;;;;;;;18.50;14.60;;;;;;;;;;6265554;22;20171;-83
2021/01/17 14:14:24;;;;;;;18.88;16.30;;;;;;;;;;6292101;22;20141;-82
2021/01/17 14:16:50;;;;;;;21.38;15.63;;;;;;;;;;6291312;22;20204;-82
2021/01/17 14:19:17;;;;;;;21.05;14.02;;;;;;;;;;6295303;22;20168;-83
2021/01/17 14:21:46;;;;;;;18.25;13.90;;;;;;;;;;6319117;22;20179;-84
2021/01/17 14:24:14;;;;;;;20.33;16.67;;;;;;;;;;6319870;22;20144;-83
2021/01/17 14:26:40;;;;;;;16.52;13.23;;;;;;;;;;6318780;22;20145;-82
2021/01/17 14:29:11;;;;;;;16.38;13.30;;;;;;;;;;6319373;22;20482;-83
2021/01/17 14:31:42;;;;;;;20.00;16.77;;;;;;;;;;6318576;22;20176;-83
2021/01/17 14:34:09;;;;;;;19.88;16.90;;;;;;;;;;6291258;22;20168;-83
2021/01/17 14:36:36;;;;;;;18.02;15.68;;;;;;;;;;6318310;22;20145;-83
2021/01/17 14:39:07;;;;;;;25.33;15.80;;;;;;;;;;6319333;22;20140;-83
2021/01/17 14:41:34;;;;;;;21.00;15.60;;;;;;;;;;6291748;22;20206;-83
2021/01/17 14:44:00;;;;;;;19.17;14.85;;;;;;;;;;6319716;22;20144;-82